sensor_id;sensor_type;location;lat;lon;timestamp;pressure;altitude;pressure_sealevel;temperature;humidity
81897;BME280;71360;43.506;1.500;2024-02-16T00:01:33;98951.25;;;12.86;79.34
81897;BME280;71360;43.506;1.500;2024-02-16T00:03:58;98959.28;;;12.86;79.66
81897;BME280;71360;43.506;1.500;2024-02-16T00:06:24;98974.53;;;12.86;79.95
81897;BME280;71360;43.506;1.500;2024-02-16T00:08:49;98968.28;;;12.85;79.97
81897;BME280;71360;43.506;1.500;2024-02-16T00:11:18;98962.88;;;12.87;79.82
81897;BME280;71360;43.506;1.500;2024-02-16T00:13:44;98980.84;;;12.84;79.17
81897;BME280;71360;43.506;1.500;2024-02-16T00:16:09;98990.75;;;12.84;79.63
81897;BME280;71360;43.506;1.500;2024-02-16T00:18:35;98992.53;;;12.83;79.51
81897;BME280;71360;43.506;1.500;2024-02-16T00:21:00;98987.28;;;12.82;79.63
81897;BME280;71360;43.506;1.500;2024-02-16T00:23:27;98989.00;;;12.83;79.61
81897;BME280;71360;43.506;1.500;2024-02-16T00:25:52;98987.28;;;12.82;79.71
81897;BME280;71360;43.506;1.500;2024-02-16T00:28:18;98997.06;;;12.83;79.86
81897;BME280;71360;43.506;1.500;2024-02-16T00:30:44;98997.78;;;12.85;79.49
81897;BME280;71360;43.506;1.500;2024-02-16T00:33:09;99008.53;;;12.85;80.04
81897;BME280;71360;43.506;1.500;2024-02-16T00:35:35;99001.47;;;12.84;79.75
81897;BME280;71360;43.506;1.500;2024-02-16T00:38:00;99017.56;;;12.84;79.83
81897;BME280;71360;43.506;1.500;2024-02-16T00:40:26;99021.94;;;12.85;79.69
81897;BME280;71360;43.506;1.500;2024-02-16T00:42:52;99017.56;;;12.84;80.05
81897;BME280;71360;43.506;1.500;2024-02-16T00:45:17;99023.66;;;12.86;79.83
81897;BME280;71360;43.506;1.500;2024-02-16T00:47:43;99029.97;;;12.85;79.64
81897;BME280;71360;43.506;1.500;2024-02-16T00:50:10;99026.44;;;12.84;79.70
81897;BME280;71360;43.506;1.500;2024-02-16T00:52:36;99026.56;;;12.83;79.95
81897;BME280;71360;43.506;1.500;2024-02-16T00:55:03;99037.28;;;12.83;79.80
81897;BME280;71360;43.506;1.500;2024-02-16T00:57:29;99039.00;;;12.84;79.72
81897;BME280;71360;43.506;1.500;2024-02-16T00:59:54;99038.22;;;12.82;80.17
81897;BME280;71360;43.506;1.500;2024-02-16T01:02:20;99042.75;;;12.81;79.90
81897;BME280;71360;43.506;1.500;2024-02-16T01:04:47;99039.19;;;12.81;79.99
81897;BME280;71360;43.506;1.500;2024-02-16T01:07:15;99041.97;;;12.79;79.71
81897;BME280;71360;43.506;1.500;2024-02-16T01:09:40;99042.94;;;12.78;79.98
81897;BME280;71360;43.506;1.500;2024-02-16T01:12:06;99039.38;;;12.78;79.72
81897;BME280;71360;43.506;1.500;2024-02-16T01:14:31;99033.91;;;12.79;79.49
81897;BME280;71360;43.506;1.500;2024-02-16T01:16:57;99035.94;;;12.76;79.80
81897;BME280;71360;43.506;1.500;2024-02-16T01:19:22;99040.34;;;12.77;79.94
81897;BME280;71360;43.506;1.500;2024-02-16T01:21:47;99035.94;;;12.76;79.92
81897;BME280;71360;43.506;1.500;2024-02-16T01:24:17;99038.53;;;12.77;79.96
81897;BME280;71360;43.506;1.500;2024-02-16T01:26:42;99032.28;;;12.77;80.19
81897;BME280;71360;43.506;1.500;2024-02-16T01:29:08;99042.06;;;12.78;79.72
81897;BME280;71360;43.506;1.500;2024-02-16T01:31:33;99049.34;;;12.76;79.69
81897;BME280;71360;43.506;1.500;2024-02-16T01:34:00;99053.75;;;12.77;80.25
81897;BME280;71360;43.506;1.500;2024-02-16T01:36:26;99046.69;;;12.76;79.94
81897;BME280;71360;43.506;1.500;2024-02-16T01:38:51;99045.78;;;12.75;79.83
81897;BME280;71360;43.506;1.500;2024-02-16T01:41:17;99043.22;;;12.74;80.05
81897;BME280;71360;43.506;1.500;2024-02-16T01:43:43;99035.16;;;12.74;79.76
81897;BME280;71360;43.506;1.500;2024-02-16T01:46:08;99036.22;;;12.71;80.30
81897;BME280;71360;43.506;1.500;2024-02-16T01:48:34;99034.41;;;12.72;80.08
81897;BME280;71360;43.506;1.500;2024-02-16T01:51:00;99031.84;;;12.70;79.79
81897;BME280;71360;43.506;1.500;2024-02-16T01:53:27;99024.84;;;12.68;80.21
81897;BME280;71360;43.506;1.500;2024-02-16T01:55:54;99020.44;;;12.66;79.95
81897;BME280;71360;43.506;1.500;2024-02-16T01:58:19;99022.34;;;12.64;79.92
81897;BME280;71360;43.506;1.500;2024-02-16T02:00:45;99024.25;;;12.62;79.84
81897;BME280;71360;43.506;1.500;2024-02-16T02:03:11;99021.69;;;12.61;79.96
81897;BME280;71360;43.506;1.500;2024-02-16T02:05:45;99021.78;;;12.59;80.00
81897;BME280;71360;43.506;1.500;2024-02-16T02:08:11;99025.63;;;12.55;80.35
81897;BME280;71360;43.506;1.500;2024-02-16T02:10:37;99024.84;;;12.53;80.35
81897;BME280;71360;43.506;1.500;2024-02-16T02:13:02;99034.72;;;12.53;80.22
81897;BME280;71360;43.506;1.500;2024-02-16T02:15:28;99026.66;;;12.53;80.09
81897;BME280;71360;43.506;1.500;2024-02-16T02:17:59;99027.72;;;12.50;79.89
81897;BME280;71360;43.506;1.500;2024-02-16T02:20:28;99023.19;;;12.50;80.29
81897;BME280;71360;43.506;1.500;2024-02-16T02:22:53;99019.66;;;12.50;80.16
81897;BME280;71360;43.506;1.500;2024-02-16T02:25:19;99025.88;;;12.50;80.24
81897;BME280;71360;43.506;1.500;2024-02-16T02:27:54;99031.25;;;12.50;80.17
81897;BME280;71360;43.506;1.500;2024-02-16T02:30:19;99029.72;;;12.46;80.26
81897;BME280;71360;43.506;1.500;2024-02-16T02:32:46;99025.19;;;12.47;80.87
81897;BME280;71360;43.506;1.500;2024-02-16T02:35:12;99030.56;;;12.47;80.35
81897;BME280;71360;43.506;1.500;2024-02-16T02:37:39;99030.56;;;12.47;80.52
81897;BME280;71360;43.506;1.500;2024-02-16T02:40:07;99029.72;;;12.46;80.56
81897;BME280;71360;43.506;1.500;2024-02-16T02:42:34;99035.91;;;12.47;80.25
81897;BME280;71360;43.506;1.500;2024-02-16T02:44:59;99025.19;;;12.47;80.53
81897;BME280;71360;43.506;1.500;2024-02-16T02:47:25;99018.13;;;12.46;80.58
81897;BME280;71360;43.506;1.500;2024-02-16T02:49:50;99022.53;;;12.47;80.39
81897;BME280;71360;43.506;1.500;2024-02-16T02:52:16;99031.44;;;12.47;80.72
81897;BME280;71360;43.506;1.500;2024-02-16T02:54:42;99030.56;;;12.47;80.23
81897;BME280;71360;43.506;1.500;2024-02-16T02:57:07;99035.06;;;12.46;80.63
81897;BME280;71360;43.506;1.500;2024-02-16T02:59:32;99035.06;;;12.46;80.60
81897;BME280;71360;43.506;1.500;2024-02-16T03:01:58;99043.22;;;12.45;80.49
81897;BME280;71360;43.506;1.500;2024-02-16T03:04:23;99036.13;;;12.44;80.73
81897;BME280;71360;43.506;1.500;2024-02-16T03:06:52;99040.63;;;12.43;80.49
81897;BME280;71360;43.506;1.500;2024-02-16T03:09:17;99038.81;;;12.44;80.58
81897;BME280;71360;43.506;1.500;2024-02-16T03:11:43;99040.63;;;12.43;80.60
81897;BME280;71360;43.506;1.500;2024-02-16T03:14:08;99037.06;;;12.43;80.63
81897;BME280;71360;43.506;1.500;2024-02-16T03:16:34;99044.34;;;12.41;80.42
81897;BME280;71360;43.506;1.500;2024-02-16T03:18:59;99045.22;;;12.41;80.43
81897;BME280;71360;43.506;1.500;2024-02-16T03:21:25;99039.09;;;12.39;80.51
81897;BME280;71360;43.506;1.500;2024-02-16T03:23:51;99042.72;;;12.38;80.80
81897;BME280;71360;43.506;1.500;2024-02-16T03:26:17;99048.19;;;12.37;80.82
81897;BME280;71360;43.506;1.500;2024-02-16T03:28:47;99045.69;;;12.33;81.07
81897;BME280;71360;43.506;1.500;2024-02-16T03:31:20;99043.19;;;12.30;80.88
81897;BME280;71360;43.506;1.500;2024-02-16T03:33:47;99026.34;;;12.28;81.03
81897;BME280;71360;43.506;1.500;2024-02-16T03:36:16;99042.44;;;12.28;81.35
81897;BME280;71360;43.506;1.500;2024-02-16T03:38:42;99051.41;;;12.27;81.54
81897;BME280;71360;43.506;1.500;2024-02-16T03:41:14;99063.88;;;12.28;81.32
81897;BME280;71360;43.506;1.500;2024-02-16T03:43:42;99063.28;;;12.23;81.70
81897;BME280;71360;43.506;1.500;2024-02-16T03:46:15;99059.06;;;12.19;81.61
81897;BME280;71360;43.506;1.500;2024-02-16T03:48:43;99059.06;;;12.19;81.85
81897;BME280;71360;43.506;1.500;2024-02-16T03:51:10;99062.78;;;12.16;81.41
81897;BME280;71360;43.506;1.500;2024-02-16T03:53:35;99065.66;;;12.13;81.59
81897;BME280;71360;43.506;1.500;2024-02-16T03:56:01;99072.06;;;12.11;81.92
81897;BME280;71360;43.506;1.500;2024-02-16T03:58:26;99057.88;;;12.09;81.84
81897;BME280;71360;43.506;1.500;2024-02-16T04:00:52;99061.63;;;12.06;82.08
81897;BME280;71360;43.506;1.500;2024-02-16T04:03:20;99065.34;;;12.04;82.64
81897;BME280;71360;43.506;1.500;2024-02-16T04:05:45;99070.84;;;12.01;81.90
81897;BME280;71360;43.506;1.500;2024-02-16T04:08:11;99068.38;;;11.97;82.49
81897;BME280;71360;43.506;1.500;2024-02-16T04:10:36;99072.88;;;11.97;82.57
81897;BME280;71360;43.506;1.500;2024-02-16T04:13:02;99072.97;;;11.95;82.59
81897;BME280;71360;43.506;1.500;2024-02-16T04:15:28;99076.59;;;11.94;82.59
81897;BME280;71360;43.506;1.500;2024-02-16T04:18:05;99073.09;;;11.92;82.50
81897;BME280;71360;43.506;1.500;2024-02-16T04:20:30;99077.88;;;11.87;82.68
81897;BME280;71360;43.506;1.500;2024-02-16T04:22:56;99076.91;;;11.88;82.68
81897;BME280;71360;43.506;1.500;2024-02-16T04:25:21;99085.97;;;11.86;83.12
81897;BME280;71360;43.506;1.500;2024-02-16T04:27:46;99088.75;;;11.84;83.32
81897;BME280;71360;43.506;1.500;2024-02-16T04:30:12;99094.19;;;11.82;83.11
81897;BME280;71360;43.506;1.500;2024-02-16T04:32:37;99098.72;;;11.82;82.92
81897;BME280;71360;43.506;1.500;2024-02-16T04:35:03;99101.38;;;11.82;82.89
81897;BME280;71360;43.506;1.500;2024-02-16T04:37:29;99107.69;;;11.81;82.83
81897;BME280;71360;43.506;1.500;2024-02-16T04:39:55;99103.19;;;11.81;83.27
81897;BME280;71360;43.506;1.500;2024-02-16T04:42:20;99100.59;;;11.80;83.24
81897;BME280;71360;43.506;1.500;2024-02-16T04:44:46;99111.31;;;11.80;83.39
81897;BME280;71360;43.506;1.500;2024-02-16T04:47:11;99122.09;;;11.78;83.36
81897;BME280;71360;43.506;1.500;2024-02-16T04:49:37;99115.91;;;11.78;83.43
81897;BME280;71360;43.506;1.500;2024-02-16T04:52:03;99123.06;;;11.77;83.66
81897;BME280;71360;43.506;1.500;2024-02-16T04:54:29;99128.41;;;11.77;83.28
81897;BME280;71360;43.506;1.500;2024-02-16T04:56:55;99131.25;;;11.74;83.63
81897;BME280;71360;43.506;1.500;2024-02-16T04:59:20;99141.13;;;11.74;83.54
81897;BME280;71360;43.506;1.500;2024-02-16T05:01:46;99144.75;;;11.73;83.40
81897;BME280;71360;43.506;1.500;2024-02-16T05:04:12;99149.25;;;11.72;84.01
81897;BME280;71360;43.506;1.500;2024-02-16T05:06:39;99151.94;;;11.72;83.94
81897;BME280;71360;43.506;1.500;2024-02-16T05:09:05;99149.31;;;11.71;84.07
81897;BME280;71360;43.506;1.500;2024-02-16T05:11:34;99156.41;;;11.72;84.15
81897;BME280;71360;43.506;1.500;2024-02-16T05:13:59;99154.66;;;11.71;84.15
81897;BME280;71360;43.506;1.500;2024-02-16T05:16:25;99164.59;;;11.69;83.64
81897;BME280;71360;43.506;1.500;2024-02-16T05:18:52;99161.06;;;11.68;83.80
81897;BME280;71360;43.506;1.500;2024-02-16T05:21:17;99165.56;;;11.68;84.17
81897;BME280;71360;43.506;1.500;2024-02-16T05:23:42;99171.75;;;11.68;83.88
81897;BME280;71360;43.506;1.500;2024-02-16T05:26:08;99178.00;;;11.69;83.97
81897;BME280;71360;43.506;1.500;2024-02-16T05:28:33;99175.31;;;11.69;84.34
81897;BME280;71360;43.506;1.500;2024-02-16T05:31:12;99176.25;;;11.68;83.88
81897;BME280;71360;43.506;1.500;2024-02-16T05:33:40;99176.25;;;11.68;84.09
81897;BME280;71360;43.506;1.500;2024-02-16T05:36:06;99188.72;;;11.69;84.03
81897;BME280;71360;43.506;1.500;2024-02-16T05:38:32;99188.72;;;11.69;83.71
81897;BME280;71360;43.506;1.500;2024-02-16T05:41:00;99193.19;;;11.68;83.73
81897;BME280;71360;43.506;1.500;2024-02-16T05:43:25;99191.38;;;11.69;83.85
81897;BME280;71360;43.506;1.500;2024-02-16T05:45:51;99197.50;;;11.71;84.03
81897;BME280;71360;43.506;1.500;2024-02-16T05:48:16;99201.16;;;11.70;84.16
81897;BME280;71360;43.506;1.500;2024-02-16T05:50:42;99205.72;;;11.68;83.80
81897;BME280;71360;43.506;1.500;2024-02-16T05:53:08;99210.13;;;11.69;84.16
81897;BME280;71360;43.506;1.500;2024-02-16T05:55:36;99220.84;;;11.69;84.25
81897;BME280;71360;43.506;1.500;2024-02-16T05:58:02;99224.44;;;11.68;84.23
81897;BME280;71360;43.506;1.500;2024-02-16T06:00:32;99218.25;;;11.67;83.98
81897;BME280;71360;43.506;1.500;2024-02-16T06:02:58;99218.34;;;11.65;84.38
81897;BME280;71360;43.506;1.500;2024-02-16T06:05:24;99220.13;;;11.65;84.49
81897;BME280;71360;43.506;1.500;2024-02-16T06:07:49;99228.16;;;11.65;84.34
81897;BME280;71360;43.506;1.500;2024-02-16T06:10:15;99223.75;;;11.64;84.64
81897;BME280;71360;43.506;1.500;2024-02-16T06:12:40;99222.03;;;11.63;84.56
81897;BME280;71360;43.506;1.500;2024-02-16T06:15:06;99237.22;;;11.62;84.55
81897;BME280;71360;43.506;1.500;2024-02-16T06:17:32;99237.22;;;11.62;84.69
81897;BME280;71360;43.506;1.500;2024-02-16T06:19:58;99233.59;;;11.63;84.32
81897;BME280;71360;43.506;1.500;2024-02-16T06:22:23;99246.03;;;11.64;84.79
81897;BME280;71360;43.506;1.500;2024-02-16T06:24:49;99246.97;;;11.63;84.80
81897;BME280;71360;43.506;1.500;2024-02-16T06:27:14;99252.44;;;11.62;84.72
81897;BME280;71360;43.506;1.500;2024-02-16T06:29:41;99254.16;;;11.63;84.96
81897;BME280;71360;43.506;1.500;2024-02-16T06:32:06;99257.69;;;11.63;84.97
81897;BME280;71360;43.506;1.500;2024-02-16T06:34:32;99248.91;;;11.61;85.44
81897;BME280;71360;43.506;1.500;2024-02-16T06:36:58;99254.31;;;11.60;84.85
81897;BME280;71360;43.506;1.500;2024-02-16T06:39:23;99255.28;;;11.59;85.48
81897;BME280;71360;43.506;1.500;2024-02-16T06:41:49;99255.38;;;11.57;85.46
81897;BME280;71360;43.506;1.500;2024-02-16T06:44:15;99257.16;;;11.57;85.57
81897;BME280;71360;43.506;1.500;2024-02-16T06:46:42;99263.41;;;11.57;85.67
81897;BME280;71360;43.506;1.500;2024-02-16T06:49:08;99266.00;;;11.59;84.96
81897;BME280;71360;43.506;1.500;2024-02-16T06:51:33;99270.38;;;11.60;85.05
81897;BME280;71360;43.506;1.500;2024-02-16T06:53:59;99269.50;;;11.59;85.51
81897;BME280;71360;43.506;1.500;2024-02-16T06:56:24;99272.19;;;11.59;85.41
81897;BME280;71360;43.506;1.500;2024-02-16T06:58:50;99274.03;;;11.59;85.38
81897;BME280;71360;43.506;1.500;2024-02-16T07:01:16;99283.75;;;11.60;85.53
81897;BME280;71360;43.506;1.500;2024-02-16T07:03:43;99288.16;;;11.61;85.15
81897;BME280;71360;43.506;1.500;2024-02-16T07:06:09;99289.06;;;11.61;85.27
81897;BME280;71360;43.506;1.500;2024-02-16T07:08:41;99291.72;;;11.61;85.37
81897;BME280;71360;43.506;1.500;2024-02-16T07:11:08;99293.44;;;11.62;85.37
81897;BME280;71360;43.506;1.500;2024-02-16T07:13:34;99294.41;;;11.61;85.27
81897;BME280;71360;43.506;1.500;2024-02-16T07:15:59;99296.13;;;11.62;85.50
81897;BME280;71360;43.506;1.500;2024-02-16T07:18:25;99301.47;;;11.62;85.44
81897;BME280;71360;43.506;1.500;2024-02-16T07:20:50;99311.22;;;11.63;85.23
81897;BME280;71360;43.506;1.500;2024-02-16T07:23:16;99309.41;;;11.64;85.08
81897;BME280;71360;43.506;1.500;2024-02-16T07:25:42;99312.97;;;11.64;85.39
81897;BME280;71360;43.506;1.500;2024-02-16T07:28:08;99320.91;;;11.66;85.68
81897;BME280;71360;43.506;1.500;2024-02-16T07:30:34;99319.97;;;11.67;85.70
81897;BME280;71360;43.506;1.500;2024-02-16T07:33:01;99322.56;;;11.69;85.35
81897;BME280;71360;43.506;1.500;2024-02-16T07:35:27;99328.69;;;11.71;85.80
81897;BME280;71360;43.506;1.500;2024-02-16T07:37:52;99326.91;;;11.71;85.45
81897;BME280;71360;43.506;1.500;2024-02-16T07:40:20;99324.03;;;11.74;85.63
81897;BME280;71360;43.506;1.500;2024-02-16T07:42:45;99325.78;;;11.75;85.81
81897;BME280;71360;43.506;1.500;2024-02-16T07:45:11;99330.97;;;11.78;85.99
81897;BME280;71360;43.506;1.500;2024-02-16T07:47:40;99327.44;;;11.78;85.92
81897;BME280;71360;43.506;1.500;2024-02-16T07:50:05;99339.78;;;11.80;85.78
81897;BME280;71360;43.506;1.500;2024-02-16T07:52:31;99344.25;;;11.80;86.14
81897;BME280;71360;43.506;1.500;2024-02-16T07:54:57;99337.97;;;11.81;85.95
81897;BME280;71360;43.506;1.500;2024-02-16T07:57:23;99347.81;;;11.80;86.36
81897;BME280;71360;43.506;1.500;2024-02-16T07:59:49;99347.75;;;11.82;86.27
81897;BME280;71360;43.506;1.500;2024-02-16T08:02:14;99345.91;;;11.82;86.40
81897;BME280;71360;43.506;1.500;2024-02-16T08:04:48;99353.84;;;11.84;86.29
81897;BME280;71360;43.506;1.500;2024-02-16T08:07:13;99354.81;;;11.83;87.03
81897;BME280;71360;43.506;1.500;2024-02-16T08:09:39;99349.53;;;11.81;86.76
81897;BME280;71360;43.506;1.500;2024-02-16T08:12:05;99362.91;;;11.81;87.15
81897;BME280;71360;43.506;1.500;2024-02-16T08:14:32;99361.22;;;11.80;87.25
81897;BME280;71360;43.506;1.500;2024-02-16T08:16:58;99370.19;;;11.79;87.61
81897;BME280;71360;43.506;1.500;2024-02-16T08:19:31;99373.72;;;11.80;87.99
81897;BME280;71360;43.506;1.500;2024-02-16T08:21:58;99365.69;;;11.80;87.97
81897;BME280;71360;43.506;1.500;2024-02-16T08:24:23;99366.63;;;11.79;88.11
81897;BME280;71360;43.506;1.500;2024-02-16T08:26:49;99376.31;;;11.81;88.05
81897;BME280;71360;43.506;1.500;2024-02-16T08:29:14;99372.59;;;11.84;88.06
81897;BME280;71360;43.506;1.500;2024-02-16T08:31:40;99376.22;;;11.83;88.79
81897;BME280;71360;43.506;1.500;2024-02-16T08:34:05;99378.91;;;11.83;88.69
81897;BME280;71360;43.506;1.500;2024-02-16T08:36:33;99380.63;;;11.84;88.55
81897;BME280;71360;43.506;1.500;2024-02-16T08:38:59;99377.88;;;11.86;88.62
81897;BME280;71360;43.506;1.500;2024-02-16T08:41:25;99377.03;;;11.85;88.34
81897;BME280;71360;43.506;1.500;2024-02-16T08:43:50;99375.28;;;11.84;88.95
81897;BME280;71360;43.506;1.500;2024-02-16T08:46:16;99394.97;;;11.83;88.58
81897;BME280;71360;43.506;1.500;2024-02-16T08:48:41;99394.97;;;11.83;88.96
81897;BME280;71360;43.506;1.500;2024-02-16T08:51:09;99401.94;;;11.87;89.28
81897;BME280;71360;43.506;1.500;2024-02-16T08:53:35;99407.28;;;11.87;89.22
81897;BME280;71360;43.506;1.500;2024-02-16T08:56:01;99401.94;;;11.87;89.41
81897;BME280;71360;43.506;1.500;2024-02-16T08:58:27;99402.69;;;11.89;89.26
81897;BME280;71360;43.506;1.500;2024-02-16T09:00:52;99404.44;;;11.90;89.35
81897;BME280;71360;43.506;1.500;2024-02-16T09:03:18;99413.16;;;11.94;89.14
81897;BME280;71360;43.506;1.500;2024-02-16T09:05:43;99418.47;;;11.95;89.46
81897;BME280;71360;43.506;1.500;2024-02-16T09:08:09;99406.78;;;11.96;89.47
81897;BME280;71360;43.506;1.500;2024-02-16T09:10:36;99416.41;;;12.01;89.33
81897;BME280;71360;43.506;1.500;2024-02-16T09:13:01;99422.56;;;12.03;89.51
81897;BME280;71360;43.506;1.500;2024-02-16T09:15:27;99429.66;;;12.04;89.54
81897;BME280;71360;43.506;1.500;2024-02-16T09:17:53;99428.63;;;12.06;90.04
81897;BME280;71360;43.506;1.500;2024-02-16T09:20:19;99440.00;;;12.10;89.77
81897;BME280;71360;43.506;1.500;2024-02-16T09:22:48;99443.31;;;12.15;89.75
81897;BME280;71360;43.506;1.500;2024-02-16T09:25:14;99442.28;;;12.18;89.93
81897;BME280;71360;43.506;1.500;2024-02-16T09:27:40;99443.16;;;12.18;89.68
81897;BME280;71360;43.506;1.500;2024-02-16T09:30:13;99449.13;;;12.23;89.44
81897;BME280;71360;43.506;1.500;2024-02-16T09:32:41;99452.66;;;12.24;89.31
81897;BME280;71360;43.506;1.500;2024-02-16T09:35:09;99447.25;;;12.25;88.87
81897;BME280;71360;43.506;1.500;2024-02-16T09:37:35;99458.91;;;12.24;89.21
81897;BME280;71360;43.506;1.500;2024-02-16T09:40:02;99454.41;;;12.25;89.16
81897;BME280;71360;43.506;1.500;2024-02-16T09:42:29;99457.00;;;12.26;89.32
81897;BME280;71360;43.506;1.500;2024-02-16T09:44:54;99457.00;;;12.26;88.95
81897;BME280;71360;43.506;1.500;2024-02-16T09:47:21;99465.84;;;12.28;88.66
81897;BME280;71360;43.506;1.500;2024-02-16T09:49:47;99462.34;;;12.26;88.86
81897;BME280;71360;43.506;1.500;2024-02-16T09:52:13;99469.44;;;12.27;89.13
81897;BME280;71360;43.506;1.500;2024-02-16T09:54:40;99465.91;;;12.27;88.81
81897;BME280;71360;43.506;1.500;2024-02-16T09:57:05;99463.91;;;12.30;89.48
81897;BME280;71360;43.506;1.500;2024-02-16T09:59:31;99470.94;;;12.33;89.13
81897;BME280;71360;43.506;1.500;2024-02-16T10:02:01;99473.53;;;12.35;89.00
81897;BME280;71360;43.506;1.500;2024-02-16T10:04:27;99480.53;;;12.37;89.06
81897;BME280;71360;43.506;1.500;2024-02-16T10:06:53;99477.75;;;12.39;88.95
81897;BME280;71360;43.506;1.500;2024-02-16T10:09:25;99481.25;;;12.41;89.09
81897;BME280;71360;43.506;1.500;2024-02-16T10:11:51;99473.97;;;12.43;88.94
81897;BME280;71360;43.506;1.500;2024-02-16T10:14:17;99476.59;;;12.44;88.80
81897;BME280;71360;43.506;1.500;2024-02-16T10:16:47;99480.91;;;12.47;89.17
81897;BME280;71360;43.506;1.500;2024-02-16T10:19:13;99484.38;;;12.49;89.48
81897;BME280;71360;43.506;1.500;2024-02-16T10:21:40;99484.19;;;12.52;88.92
81897;BME280;71360;43.506;1.500;2024-02-16T10:24:06;99489.41;;;12.55;89.16
81897;BME280;71360;43.506;1.500;2024-02-16T10:26:37;99492.69;;;12.60;88.76
81897;BME280;71360;43.506;1.500;2024-02-16T10:29:04;99500.59;;;12.63;89.08
81897;BME280;71360;43.506;1.500;2024-02-16T10:31:30;99510.19;;;12.68;88.76
81897;BME280;71360;43.506;1.500;2024-02-16T10:34:01;99506.47;;;12.70;88.89
81897;BME280;71360;43.506;1.500;2024-02-16T10:36:32;99507.25;;;12.72;88.81
81897;BME280;71360;43.506;1.500;2024-02-16T10:38:58;99503.53;;;12.75;88.56
81897;BME280;71360;43.506;1.500;2024-02-16T10:41:26;99506.97;;;12.77;88.41
81897;BME280;71360;43.506;1.500;2024-02-16T10:43:55;99507.78;;;12.79;88.52
81897;BME280;71360;43.506;1.500;2024-02-16T10:46:24;99518.31;;;12.82;88.35
81897;BME280;71360;43.506;1.500;2024-02-16T10:48:50;99524.47;;;12.84;88.38
81897;BME280;71360;43.506;1.500;2024-02-16T10:51:17;99513.66;;;12.86;88.27
81897;BME280;71360;43.506;1.500;2024-02-16T10:53:46;99535.13;;;12.86;87.76
81897;BME280;71360;43.506;1.500;2024-02-16T10:56:13;99528.09;;;12.83;87.69
81897;BME280;71360;43.506;1.500;2024-02-16T10:58:41;99541.69;;;12.80;87.42
81897;BME280;71360;43.506;1.500;2024-02-16T11:01:09;99552.56;;;12.77;86.70
81897;BME280;71360;43.506;1.500;2024-02-16T11:03:38;99546.00;;;12.66;85.63
81897;BME280;71360;43.506;1.500;2024-02-16T11:06:16;99544.28;;;12.48;84.80
81897;BME280;71360;43.506;1.500;2024-02-16T11:08:42;99537.25;;;12.29;84.64
81897;BME280;71360;43.506;1.500;2024-02-16T11:11:08;99548.75;;;12.14;84.73
81897;BME280;71360;43.506;1.500;2024-02-16T11:13:37;99553.19;;;11.97;85.58
81897;BME280;71360;43.506;1.500;2024-02-16T11:16:10;99548.41;;;11.85;86.06
81897;BME280;71360;43.506;1.500;2024-02-16T11:18:40;99557.72;;;11.78;86.19
81897;BME280;71360;43.506;1.500;2024-02-16T11:21:11;99564.31;;;11.71;86.92
81897;BME280;71360;43.506;1.500;2024-02-16T11:23:39;99555.72;;;11.64;87.18
81897;BME280;71360;43.506;1.500;2024-02-16T11:26:08;99562.13;;;11.61;87.51
81897;BME280;71360;43.506;1.500;2024-02-16T11:28:37;99559.47;;;11.60;87.67
81897;BME280;71360;43.506;1.500;2024-02-16T11:31:03;99557.78;;;11.59;88.18
81897;BME280;71360;43.506;1.500;2024-02-16T11:33:29;99555.00;;;11.60;88.47
81897;BME280;71360;43.506;1.500;2024-02-16T11:35:57;99558.34;;;11.65;89.00
81897;BME280;71360;43.506;1.500;2024-02-16T11:38:23;99553.66;;;11.69;88.78
81897;BME280;71360;43.506;1.500;2024-02-16T11:41:06;99558.75;;;11.75;88.84
81897;BME280;71360;43.506;1.500;2024-02-16T11:43:34;99566.34;;;11.83;89.19
81897;BME280;71360;43.506;1.500;2024-02-16T11:46:11;99551.94;;;11.86;89.52
81897;BME280;71360;43.506;1.500;2024-02-16T11:48:37;99555.19;;;11.92;89.52
81897;BME280;71360;43.506;1.500;2024-02-16T11:51:04;99556.66;;;11.99;89.09
81897;BME280;71360;43.506;1.500;2024-02-16T11:53:30;99557.34;;;12.03;89.19
81897;BME280;71360;43.506;1.500;2024-02-16T11:55:56;99553.66;;;12.06;89.06
81897;BME280;71360;43.506;1.500;2024-02-16T11:58:21;99558.78;;;12.10;89.26
81897;BME280;71360;43.506;1.500;2024-02-16T12:00:48;99558.53;;;12.15;89.15
81897;BME280;71360;43.506;1.500;2024-02-16T12:03:26;99539.59;;;12.18;89.25
81897;BME280;71360;43.506;1.500;2024-02-16T12:05:54;99549.13;;;12.24;88.72
81897;BME280;71360;43.506;1.500;2024-02-16T12:08:20;99550.88;;;12.25;88.60
81897;BME280;71360;43.506;1.500;2024-02-16T12:10:47;99550.78;;;12.26;89.08
81897;BME280;71360;43.506;1.500;2024-02-16T12:13:18;99546.22;;;12.28;89.05
81897;BME280;71360;43.506;1.500;2024-02-16T12:15:45;99552.34;;;12.30;88.39
81897;BME280;71360;43.506;1.500;2024-02-16T12:21:04;99542.34;;;12.34;88.26
81897;BME280;71360;43.506;1.500;2024-02-16T12:23:33;99542.28;;;12.36;88.14
81897;BME280;71360;43.506;1.500;2024-02-16T12:26:00;99546.59;;;12.38;88.45
81897;BME280;71360;43.506;1.500;2024-02-16T12:28:26;99544.72;;;12.40;88.07
81897;BME280;71360;43.506;1.500;2024-02-16T12:30:57;99548.09;;;12.44;88.20
81897;BME280;71360;43.506;1.500;2024-02-16T12:33:23;99545.22;;;12.47;88.01
81897;BME280;71360;43.506;1.500;2024-02-16T12:35:49;99546.13;;;12.47;87.38
81897;BME280;71360;43.506;1.500;2024-02-16T12:38:15;99539.88;;;12.47;87.36
81897;BME280;71360;43.506;1.500;2024-02-16T12:40:48;99540.75;;;12.47;87.55
81897;BME280;71360;43.506;1.500;2024-02-16T12:43:13;99543.34;;;12.49;87.66
81897;BME280;71360;43.506;1.500;2024-02-16T12:45:40;99545.09;;;12.50;87.16
81897;BME280;71360;43.506;1.500;2024-02-16T12:48:07;99545.78;;;12.54;87.32
81897;BME280;71360;43.506;1.500;2024-02-16T12:50:33;99543.88;;;12.56;87.06
81897;BME280;71360;43.506;1.500;2024-02-16T12:52:59;99544.84;;;12.55;86.76
81897;BME280;71360;43.506;1.500;2024-02-16T12:55:25;99537.66;;;12.55;86.72
81897;BME280;71360;43.506;1.500;2024-02-16T12:57:51;99542.06;;;12.56;86.81
81897;BME280;71360;43.506;1.500;2024-02-16T13:00:17;99532.31;;;12.55;86.62